Time;durP1;ratioP1;P1;durP2;ratioP2;P2;SDS_P1;SDS_P2;PMS_P1;PMS_P2;Temp;Humidity;BMP_temperature;BMP_pressure;BME280_temperature;BME280_humidity;BME280_pressure;Samples;Min_cycle;Max_cycle;Signal;HPM_P1;HPM_P2
2021/06/30 00:00:11;;;;;;;24.65;10.13;;;15.80;99.90;;;;;;5021906;28;20041;-90
2021/06/30 00:02:38;;;;;;;22.83;10.07;;;15.80;99.90;;;;;;5070396;28;20048;-87
2021/06/30 00:05:07;;;;;;;20.30;9.57;;;15.80;99.90;;;;;;5037868;28;20462;-88
2021/06/30 00:07:34;;;;;;;19.77;9.50;;;15.70;99.90;;;;;;5053751;28;20099;-87
2021/06/30 00:10:04;;;;;;;22.50;9.80;;;15.70;99.90;;;;;;5037548;28;20045;-88
2021/06/30 00:12:32;;;;;;;24.77;10.02;;;15.80;99.90;;;;;;5054053;28;20072;-88
2021/06/30 00:15:01;;;;;;;24.25;9.52;;;15.70;99.90;;;;;;5037357;28;20060;-89
2021/06/30 00:17:29;;;;;;;22.67;10.32;;;15.80;99.90;;;;;;5054036;28;20041;-89
2021/06/30 00:19:56;;;;;;;21.52;10.65;;;15.70;99.90;;;;;;5053110;28;20033;-87
2021/06/30 00:22:23;;;;;;;24.95;9.52;;;15.70;99.90;;;;;;5053917;28;20107;-89
2021/06/30 00:24:49;;;;;;;26.10;9.73;;;15.80;99.90;;;;;;5021066;28;20053;-90
2021/06/30 00:27:16;;;;;;;22.50;9.88;;;15.80;99.90;;;;;;5021588;28;20034;-89
2021/06/30 00:29:43;;;;;;;19.50;9.30;;;15.70;99.90;;;;;;5020971;28;20496;-89
2021/06/30 00:32:10;;;;;;;21.45;9.70;;;15.80;99.90;;;;;;5021099;28;20037;-90
2021/06/30 00:34:37;;;;;;;21.02;8.90;;;15.70;99.90;;;;;;5020686;28;20041;-89
2021/06/30 00:37:03;;;;;;;20.50;9.02;;;15.80;99.90;;;;;;5021322;28;20037;-90
2021/06/30 00:39:30;;;;;;;21.23;9.27;;;15.80;99.90;;;;;;5021621;28;20093;-90
2021/06/30 00:41:57;;;;;;;21.83;8.88;;;15.80;99.90;;;;;;5020539;28;20061;-89
2021/06/30 00:44:24;;;;;;;25.65;9.25;;;15.80;99.90;;;;;;5037291;28;20037;-89
2021/06/30 00:46:51;;;;;;;24.73;9.05;;;15.70;99.90;;;;;;5053325;28;20399;-88
2021/06/30 00:49:18;;;;;;;24.50;8.98;;;15.80;99.90;;;;;;5020845;28;20379;-87
2021/06/30 00:51:44;;;;;;;20.80;9.02;;;15.70;99.90;;;;;;5036557;28;20087;-90
2021/06/30 00:54:11;;;;;;;17.48;8.38;;;15.70;99.90;;;;;;5020976;28;20034;-89
2021/06/30 00:56:39;;;;;;;18.27;8.60;;;15.70;99.90;;;;;;5053212;28;20072;-89
2021/06/30 00:59:05;;;;;;;24.98;9.40;;;15.70;99.90;;;;;;5037033;28;20045;-88
2021/06/30 01:01:32;;;;;;;21.25;9.00;;;15.70;99.90;;;;;;5020532;28;20037;-87
2021/06/30 01:03:59;;;;;;;20.58;9.13;;;15.70;99.90;;;;;;5019945;28;20047;-86
2021/06/30 01:06:39;;;;;;;18.83;8.93;;;15.70;99.90;;;;;;5025397;28;20042;-87
2021/06/30 01:09:07;;;;;;;20.90;9.32;;;15.70;99.90;;;;;;5069400;28;20363;-88
2021/06/30 01:11:43;;;;;;;20.05;8.93;;;15.70;99.90;;;;;;5068959;28;20045;-87
2021/06/30 01:14:10;;;;;;;24.02;9.23;;;15.70;99.90;;;;;;5004176;28;20049;-87
2021/06/30 01:16:39;;;;;;;23.00;9.05;;;15.70;99.90;;;;;;5052638;28;20041;-87
2021/06/30 01:19:07;;;;;;;24.65;9.55;;;15.70;99.90;;;;;;5052293;28;20045;-87
2021/06/30 01:21:33;;;;;;;18.88;9.50;;;15.70;99.90;;;;;;5019801;28;20055;-87
2021/06/30 01:24:00;;;;;;;21.23;9.52;;;15.60;99.90;;;;;;5035678;28;20038;-87
2021/06/30 01:26:30;;;;;;;23.27;9.75;;;15.70;99.90;;;;;;5021016;28;20040;-86
2021/06/30 01:28:57;;;;;;;27.38;10.20;;;15.70;99.90;;;;;;5019496;28;20041;-87
2021/06/30 01:31:24;;;;;;;19.65;10.02;;;15.70;99.90;;;;;;5052611;28;20037;-87
2021/06/30 01:33:53;;;;;;;23.33;10.95;;;15.70;99.90;;;;;;5052339;28;20034;-86
2021/06/30 01:36:20;;;;;;;22.65;10.45;;;15.60;99.90;;;;;;5052227;28;20048;-88
2021/06/30 01:38:46;;;;;;;23.27;11.20;;;15.60;99.90;;;;;;5051867;28;20042;-86
2021/06/30 01:41:14;;;;;;;21.10;11.13;;;15.60;99.90;;;;;;5052053;28;20049;-87
2021/06/30 01:43:41;;;;;;;26.30;11.07;;;15.60;99.90;;;;;;5035975;28;20045;-88
2021/06/30 01:46:08;;;;;;;29.40;11.50;;;15.60;99.90;;;;;;5051704;28;20090;-89
2021/06/30 01:48:35;;;;;;;30.13;11.70;;;15.60;99.90;;;;;;5052160;28;20542;-88
2021/06/30 01:51:03;;;;;;;32.95;12.82;;;15.60;99.90;;;;;;5051775;28;20514;-88
2021/06/30 01:53:29;;;;;;;31.23;13.20;;;15.60;99.90;;;;;;5051748;28;20034;-88
2021/06/30 01:55:56;;;;;;;30.55;12.95;;;15.50;99.90;;;;;;5035449;28;20040;-88
2021/06/30 01:58:23;;;;;;;28.95;13.57;;;15.50;99.90;;;;;;5052085;28;20042;-88
2021/06/30 02:00:52;;;;;;;30.58;12.90;;;15.50;99.90;;;;;;5051476;28;20034;-88
2021/06/30 02:03:19;;;;;;;31.55;13.68;;;15.50;99.90;;;;;;5051847;28;20374;-90
2021/06/30 02:05:46;;;;;;;33.22;13.73;;;15.40;99.90;;;;;;5035720;28;20465;-90
2021/06/30 02:08:14;;;;;;;30.65;12.88;;;15.40;99.90;;;;;;5052319;28;20044;-88
2021/06/30 02:10:43;;;;;;;30.13;14.70;;;15.40;99.90;;;;;;5052511;28;20044;-91
2021/06/30 02:13:10;;;;;;;31.50;16.85;;;15.40;99.90;;;;;;5051863;28;20033;-91
2021/06/30 02:15:45;;;;;;;;;;;15.40;99.90;;;;;;5053671;28;20452;-90
2021/06/30 02:18:16;;;;;;;35.25;17.98;;;15.30;99.90;;;;;;5020977;28;19921;-92
2021/06/30 02:20:43;;;;;;;36.15;16.55;;;15.30;99.90;;;;;;5051638;28;20067;-91
2021/06/30 02:23:11;;;;;;;36.35;17.33;;;15.30;99.90;;;;;;5051795;28;20116;-91
2021/06/30 02:25:37;;;;;;;31.95;18.30;;;15.20;99.90;;;;;;5051860;28;20041;-92
2021/06/30 02:28:04;;;;;;;38.03;19.58;;;15.20;99.90;;;;;;5051617;28;20038;-92
2021/06/30 02:30:32;;;;;;;29.45;15.82;;;15.20;99.90;;;;;;5035787;28;20541;-93
2021/06/30 02:33:01;;;;;;;28.88;15.25;;;15.20;99.90;;;;;;5051523;28;20038;-93
2021/06/30 02:35:29;;;;;;;33.22;15.23;;;15.20;99.90;;;;;;5051633;28;20099;-91
2021/06/30 02:37:57;;;;;;;33.28;14.75;;;15.20;99.90;;;;;;5018905;28;20136;-93
2021/06/30 02:40:26;;;;;;;29.98;14.05;;;15.10;99.90;;;;;;5051963;28;20034;-94
2021/06/30 02:42:53;;;;;;;32.95;15.27;;;15.10;99.90;;;;;;5035216;28;20497;-95
2021/06/30 02:45:20;;;;;;;31.80;14.52;;;15.00;99.90;;;;;;5051598;28;20037;-93
2021/06/30 02:47:49;;;;;;;32.30;14.40;;;15.10;99.90;;;;;;5050859;28;20048;-91
2021/06/30 02:50:18;;;;;;;34.08;14.57;;;15.10;99.90;;;;;;5051386;28;20034;-93
2021/06/30 02:52:47;;;;;;;29.27;14.30;;;15.00;99.90;;;;;;5051892;28;20107;-92
2021/06/30 02:55:15;;;;;;;29.88;13.85;;;15.00;99.90;;;;;;5051702;28;20064;-94
2021/06/30 02:57:44;;;;;;;33.42;14.43;;;15.00;99.90;;;;;;5051466;28;20111;-92
2021/06/30 03:00:17;;;;;;;33.58;15.00;;;15.00;99.90;;;;;;5051293;28;20493;-94
2021/06/30 03:02:44;;;;;;;33.88;14.95;;;15.00;99.90;;;;;;5052082;28;20033;-93
2021/06/30 03:05:12;;;;;;;30.00;14.32;;;14.90;99.90;;;;;;5051804;28;20590;-93
2021/06/30 03:07:39;;;;;;;28.08;14.15;;;14.90;99.90;;;;;;5052030;28;20049;-94
2021/06/30 03:10:08;;;;;;;30.25;14.60;;;14.90;99.90;;;;;;5050984;28;20029;-92
2021/06/30 03:12:36;;;;;;;27.17;14.57;;;14.90;99.90;;;;;;5051620;28;20033;-94
2021/06/30 03:15:05;;;;;;;33.33;15.90;;;14.90;99.90;;;;;;5068747;28;20034;-94
2021/06/30 03:17:34;;;;;;;42.30;14.95;;;14.90;99.90;;;;;;5051545;28;20048;-93
2021/06/30 03:20:10;;;;;;;33.38;14.70;;;14.90;99.90;;;;;;5050713;28;20037;-92
2021/06/30 03:22:41;;;;;;;28.40;12.80;;;14.90;99.90;;;;;;5051612;28;20038;-93
2021/06/30 03:25:10;;;;;;;28.98;13.77;;;14.90;99.90;;;;;;5050578;28;20076;-91
2021/06/30 03:27:38;;;;;;;32.90;13.25;;;14.90;99.90;;;;;;5050929;28;20045;-93
2021/06/30 03:30:07;;;;;;;32.50;13.63;;;14.90;99.90;;;;;;5050771;28;20378;-92
2021/06/30 03:32:33;;;;;;;24.48;12.73;;;14.90;99.90;;;;;;5051992;28;20120;-90
2021/06/30 03:35:01;;;;;;;27.10;12.13;;;14.90;99.90;;;;;;5054554;28;20068;-90
2021/06/30 03:37:28;;;;;;;25.88;11.70;;;14.80;99.90;;;;;;5054443;28;20108;-92
2021/06/30 03:39:54;;;;;;;23.35;12.13;;;14.90;99.90;;;;;;5054640;28;20105;-93
2021/06/30 03:42:21;;;;;;;21.83;12.32;;;14.80;99.90;;;;;;5050694;28;20054;-94
2021/06/30 03:44:48;;;;;;;24.52;11.70;;;14.90;99.90;;;;;;5017116;28;20046;-92
2021/06/30 03:47:15;;;;;;;32.65;12.02;;;14.80;99.90;;;;;;4999045;28;20048;-93
2021/06/30 03:49:42;;;;;;;25.33;11.48;;;14.80;99.90;;;;;;4999479;28;20057;-93
2021/06/30 03:52:09;;;;;;;31.27;14.35;;;14.70;99.90;;;;;;4999037;28;20372;-94
2021/06/30 03:54:36;;;;;;;29.08;15.95;;;14.80;99.90;;;;;;4999332;28;20034;-92
2021/06/30 03:57:03;;;;;;;25.23;12.63;;;14.80;99.90;;;;;;5015195;28;20034;-94
2021/06/30 03:59:30;;;;;;;22.63;11.70;;;14.80;99.90;;;;;;5015547;28;20402;-93
2021/06/30 04:01:58;;;;;;;24.23;11.40;;;14.80;99.90;;;;;;4999803;28;20046;-93
2021/06/30 04:04:25;;;;;;;24.00;10.13;;;14.80;99.90;;;;;;4984019;28;20096;-94
2021/06/30 04:06:52;;;;;;;23.20;9.82;;;14.80;99.90;;;;;;4999421;28;20046;-93
2021/06/30 04:09:19;;;;;;;19.98;10.27;;;14.80;99.90;;;;;;5019888;28;20101;-93
2021/06/30 04:11:46;;;;;;;19.88;9.88;;;14.80;99.90;;;;;;5011693;28;20035;-93
2021/06/30 04:14:13;;;;;;;17.80;9.57;;;14.80;99.90;;;;;;4998132;28;20124;-92
2021/06/30 04:16:39;;;;;;;17.85;9.10;;;14.70;99.90;;;;;;4983035;28;20463;-95
2021/06/30 04:19:06;;;;;;;22.23;9.80;;;14.80;99.90;;;;;;4998338;28;20038;-94
2021/06/30 04:21:33;;;;;;;17.42;9.40;;;14.70;99.90;;;;;;4999047;28;20427;-93
2021/06/30 04:24:01;;;;;;;16.73;9.45;;;14.70;99.90;;;;;;4999540;28;20390;-91
2021/06/30 04:26:28;;;;;;;16.27;10.02;;;14.70;99.90;;;;;;4998943;28;20072;-95
2021/06/30 04:28:54;;;;;;;16.15;9.45;;;14.80;99.90;;;;;;4998954;28;20459;-92
2021/06/30 04:31:21;;;;;;;15.88;10.13;;;14.70;99.90;;;;;;5031670;28;20065;-94
2021/06/30 04:33:48;;;;;;;21.63;10.10;;;14.80;99.90;;;;;;4983470;28;20538;-94
2021/06/30 04:36:15;;;;;;;18.23;10.55;;;14.70;99.90;;;;;;5014728;28;20038;-92
2021/06/30 04:38:42;;;;;;;20.08;10.27;;;14.80;99.90;;;;;;5014978;28;20062;-95
2021/06/30 04:41:10;;;;;;;22.02;9.60;;;14.80;99.90;;;;;;4998773;28;20035;-94
2021/06/30 04:43:39;;;;;;;16.90;10.43;;;14.80;99.90;;;;;;5016607;28;20046;-94
2021/06/30 04:46:07;;;;;;;18.23;10.38;;;14.80;99.90;;;;;;5001108;28;20053;-95
2021/06/30 04:48:34;;;;;;;17.33;9.95;;;14.80;99.90;;;;;;5017448;28;20124;-95
2021/06/30 04:51:03;;;;;;;21.55;10.75;;;14.80;99.90;;;;;;5017162;28;20103;-95
2021/06/30 04:53:30;;;;;;;19.55;11.13;;;14.80;99.90;;;;;;5017152;28;20030;-94
2021/06/30 04:55:58;;;;;;;22.63;10.93;;;14.90;99.90;;;;;;5017317;28;20046;-90
2021/06/30 04:58:26;;;;;;;25.75;11.10;;;14.90;99.90;;;;;;5000138;28;20041;-93
2021/06/30 05:00:54;;;;;;;21.58;11.27;;;14.80;99.90;;;;;;5016709;28;20041;-95
2021/06/30 05:03:29;;;;;;;25.15;11.15;;;14.90;99.90;;;;;;5016234;28;20445;-95
2021/06/30 05:05:56;;;;;;;23.88;11.20;;;14.90;99.90;;;;;;5016883;28;20140;-93
2021/06/30 05:08:24;;;;;;;23.35;11.50;;;14.90;99.90;;;;;;5016289;28;20485;-94
2021/06/30 05:10:52;;;;;;;19.65;10.50;;;14.80;99.90;;;;;;5032897;28;20121;-95
2021/06/30 05:13:19;;;;;;;24.25;11.65;;;14.90;99.90;;;;;;5016934;28;20080;-95
2021/06/30 05:15:46;;;;;;;23.55;11.50;;;14.80;99.90;;;;;;5016840;28;20060;-95
2021/06/30 05:18:13;;;;;;;27.13;11.73;;;14.90;99.90;;;;;;5032473;28;20042;-95
2021/06/30 05:20:40;;;;;;;22.63;11.30;;;14.90;99.90;;;;;;5016407;28;20497;-94
2021/06/30 05:23:07;;;;;;;20.63;11.27;;;14.90;99.90;;;;;;5016515;28;20042;-94
2021/06/30 05:25:34;;;;;;;20.92;10.93;;;15.00;99.90;;;;;;5016572;28;20065;-93
2021/06/30 05:28:01;;;;;;;26.50;11.32;;;14.90;99.90;;;;;;5018629;28;20092;-94
2021/06/30 05:30:28;;;;;;;23.90;11.85;;;15.00;99.90;;;;;;5032081;28;20041;-94
2021/06/30 05:32:55;;;;;;;21.95;12.55;;;15.00;99.90;;;;;;5000307;28;20465;-95
2021/06/30 05:35:22;;;;;;;22.77;12.63;;;15.00;99.90;;;;;;5032081;28;20057;-95
2021/06/30 05:37:50;;;;;;;21.15;11.55;;;15.00;99.90;;;;;;5016729;28;20046;-96
2021/06/30 05:40:17;;;;;;;22.50;10.88;;;15.00;99.90;;;;;;5016424;28;20050;-95
2021/06/30 05:42:44;;;;;;;23.98;10.63;;;15.00;99.90;;;;;;4976659;28;1144346;-94
2021/06/30 05:45:17;;;;;;;27.30;11.98;;;15.00;99.90;;;;;;5032883;28;20125;-94
2021/06/30 05:47:44;;;;;;;21.92;10.38;;;15.00;99.90;;;;;;5033356;28;20038;-95
2021/06/30 05:50:16;;;;;;;22.38;9.68;;;15.10;99.90;;;;;;5033022;28;20042;-93
2021/06/30 05:52:44;;;;;;;25.70;10.85;;;15.00;99.90;;;;;;5033173;28;20045;-95
2021/06/30 05:55:11;;;;;;;20.42;10.32;;;15.00;99.90;;;;;;5031956;28;20034;-91
2021/06/30 05:57:38;;;;;;;26.27;10.63;;;15.00;99.90;;;;;;5016714;28;20132;-93
2021/06/30 06:00:09;;;;;;;22.98;10.27;;;15.00;99.90;;;;;;5017087;28;20074;-93
2021/06/30 06:02:35;;;;;;;25.23;10.20;;;15.00;99.90;;;;;;5032805;28;20038;-93
2021/06/30 06:05:03;;;;;;;23.40;10.20;;;15.00;99.90;;;;;;5016311;28;20037;-92
2021/06/30 06:07:30;;;;;;;20.40;9.85;;;15.10;99.90;;;;;;5032344;28;20034;-94
2021/06/30 06:09:58;;;;;;;24.75;10.52;;;15.10;99.90;;;;;;5000513;28;20052;-93
2021/06/30 06:12:26;;;;;;;26.52;9.82;;;15.10;99.90;;;;;;5016467;28;20053;-93
2021/06/30 06:14:54;;;;;;;20.98;9.60;;;15.00;99.90;;;;;;5032844;28;20049;-93
2021/06/30 06:17:21;;;;;;;24.15;10.18;;;15.10;99.90;;;;;;5016130;28;20042;-92
2021/06/30 06:19:48;;;;;;;23.98;9.95;;;15.00;99.90;;;;;;5032679;28;20496;-94
2021/06/30 06:22:15;;;;;;;23.73;9.57;;;15.00;99.90;;;;;;5016447;28;20120;-93
2021/06/30 06:24:42;;;;;;;22.23;9.90;;;15.00;99.90;;;;;;5000698;28;20046;-90
2021/06/30 06:27:10;;;;;;;23.27;9.98;;;15.10;99.90;;;;;;5015785;28;20120;-91
2021/06/30 06:29:38;;;;;;;20.75;9.43;;;15.10;99.90;;;;;;5015465;28;20084;-93
2021/06/30 06:32:06;;;;;;;27.45;9.98;;;15.00;99.90;;;;;;5015992;28;20641;-91
2021/06/30 06:34:33;;;;;;;21.50;10.02;;;15.10;99.90;;;;;;5015688;28;20372;-91
2021/06/30 06:37:01;;;;;;;19.30;9.60;;;15.10;99.90;;;;;;4999686;28;20100;-92
2021/06/30 06:39:29;;;;;;;27.70;10.75;;;15.10;99.90;;;;;;5031325;28;20068;-91
2021/06/30 06:41:56;;;;;;;20.88;9.10;;;15.10;99.90;;;;;;5031865;28;20037;-93
2021/06/30 06:44:23;;;;;;;24.80;9.73;;;15.20;99.90;;;;;;5011885;28;20055;-92
2021/06/30 06:46:51;;;;;;;25.60;9.63;;;15.10;99.90;;;;;;5028110;28;20446;-91
2021/06/30 06:49:17;;;;;;;22.60;9.82;;;15.10;99.90;;;;;;5048891;28;20084;-91
2021/06/30 06:51:44;;;;;;;23.23;9.75;;;15.10;99.90;;;;;;5032068;28;20037;-94
2021/06/30 06:54:12;;;;;;;25.42;9.95;;;15.10;99.90;;;;;;5000170;28;20057;-94
2021/06/30 06:56:39;;;;;;;23.90;10.00;;;15.10;99.90;;;;;;5015610;28;20129;-94
2021/06/30 06:59:05;;;;;;;22.45;9.75;;;15.20;99.90;;;;;;5001136;28;20066;-93
2021/06/30 07:01:32;;;;;;;22.13;9.43;;;15.20;99.90;;;;;;5031504;28;20108;-95
2021/06/30 07:03:59;;;;;;;21.77;9.73;;;15.20;99.90;;;;;;4999800;28;20485;-93
2021/06/30 07:06:26;;;;;;;23.85;10.60;;;15.20;99.90;;;;;;4999225;28;20046;-95
2021/06/30 07:08:53;;;;;;;25.50;9.68;;;15.20;99.90;;;;;;5015387;28;20038;-95
2021/06/30 07:11:20;;;;;;;23.42;10.02;;;15.20;99.90;;;;;;5018910;28;20061;-96
2021/06/30 07:13:47;;;;;;;24.15;10.30;;;15.10;99.90;;;;;;5048272;28;20493;-96
2021/06/30 07:16:14;;;;;;;21.48;9.45;;;15.20;99.90;;;;;;5021348;28;20080;-94
2021/06/30 07:18:41;;;;;;;20.67;9.35;;;15.20;99.90;;;;;;5031679;28;20046;-96
2021/06/30 07:21:16;;;;;;;18.13;9.45;;;15.20;99.90;;;;;;5016805;28;20057;-96
2021/06/30 07:23:43;;;;;;;19.50;8.60;;;15.20;99.90;;;;;;5028046;28;20413;-96
2021/06/30 07:26:12;;;;;;;15.80;7.75;;;15.20;99.90;;;;;;5017438;28;20129;-96
2021/06/30 07:29:01;;;;;;;17.63;8.95;;;15.20;99.90;;;;;;5035223;28;20057;-95
2021/06/30 07:31:30;;;;;;;22.00;9.25;;;15.30;99.90;;;;;;5017432;28;20099;-93
2021/06/30 07:34:03;;;;;;;19.40;8.20;;;15.30;99.90;;;;;;5015669;28;20037;-94
2021/06/30 07:36:30;;;;;;;18.33;8.45;;;15.30;99.90;;;;;;5014566;28;20042;-93
2021/06/30 07:38:57;;;;;;;18.92;8.38;;;15.30;99.90;;;;;;5018692;28;20120;-94
2021/06/30 07:41:24;;;;;;;15.73;8.55;;;15.30;99.90;;;;;;5069083;28;20064;-95
2021/06/30 07:43:53;;;;;;;19.65;8.23;;;15.30;99.90;;;;;;5034123;28;20433;-94
2021/06/30 07:46:25;;;;;;;15.63;10.27;;;15.20;99.90;;;;;;5020780;28;20057;-95
2021/06/30 07:48:52;;;;;;;23.90;14.48;;;15.20;99.90;;;;;;5018406;28;20406;-96
2021/06/30 07:51:22;;;;;;;27.65;19.00;;;15.20;99.90;;;;;;5021936;28;20076;-95
2021/06/30 07:53:52;;;;;;;27.63;15.07;;;15.20;99.90;;;;;;5018435;28;20049;-94
2021/06/30 07:56:33;;;;;;;19.80;10.55;;;15.20;99.90;;;;;;5025724;28;20062;-96
2021/06/30 07:59:08;;;;;;;16.90;10.90;;;15.20;99.90;;;;;;5017805;28;20057;-91
2021/06/30 08:01:36;;;;;;;19.95;12.88;;;15.20;99.90;;;;;;5000326;28;20050;-91
2021/06/30 08:04:03;;;;;;;16.30;10.93;;;15.10;99.90;;;;;;5001014;28;20121;-94
2021/06/30 08:06:30;;;;;;;19.23;11.73;;;15.20;99.90;;;;;;5018030;28;20045;-93
2021/06/30 08:08:58;;;;;;;19.10;13.27;;;15.20;99.90;;;;;;5007030;28;20130;-92
2021/06/30 08:11:25;;;;;;;21.40;14.50;;;15.20;99.90;;;;;;5020564;28;20069;-93
2021/06/30 08:13:53;;;;;;;18.35;12.10;;;15.20;99.90;;;;;;5018893;28;20113;-90
2021/06/30 08:16:21;;;;;;;20.90;11.63;;;15.20;99.90;;;;;;5017743;28;20046;-90
2021/06/30 08:18:48;;;;;;;21.95;13.70;;;15.30;99.90;;;;;;5018417;28;20042;-90
2021/06/30 08:21:16;;;;;;;21.63;14.27;;;15.30;99.90;;;;;;5021574;28;20034;-89
2021/06/30 08:23:44;;;;;;;33.75;22.88;;;15.30;99.90;;;;;;5050741;28;20034;-89
2021/06/30 08:26:12;;;;;;;30.45;21.90;;;15.30;99.90;;;;;;5041836;28;20487;-88
2021/06/30 08:28:39;;;;;;;24.40;17.20;;;15.40;99.90;;;;;;5051331;28;20548;-87
2021/06/30 08:31:07;;;;;;;20.00;12.15;;;15.40;99.90;;;;;;5019394;28;20037;-89
2021/06/30 08:33:35;;;;;;;19.90;11.10;;;15.40;99.90;;;;;;5037595;28;20064;-90
2021/06/30 08:36:05;;;;;;;19.23;10.77;;;15.40;99.90;;;;;;5035790;28;20109;-89
2021/06/30 08:38:32;;;;;;;19.08;9.15;;;15.50;99.90;;;;;;5013572;28;20034;-82
2021/06/30 08:41:07;;;;;;;16.85;8.73;;;15.50;99.90;;;;;;5034674;28;20085;-94
2021/06/30 08:43:34;;;;;;;14.52;9.15;;;15.50;99.90;;;;;;5014710;28;20059;-93
2021/06/30 08:46:02;;;;;;;14.35;8.63;;;15.40;99.90;;;;;;5015826;28;20112;-94
2021/06/30 08:48:30;;;;;;;14.27;8.93;;;15.50;99.90;;;;;;5015102;28;20072;-92
2021/06/30 08:50:59;;;;;;;16.83;8.98;;;15.50;99.90;;;;;;5017274;28;20042;-93
2021/06/30 08:53:27;;;;;;;13.50;8.50;;;15.50;99.90;;;;;;5019303;28;20515;-93
2021/06/30 08:55:55;;;;;;;15.63;8.55;;;15.50;99.90;;;;;;5038348;28;20045;-95
2021/06/30 08:58:21;;;;;;;12.15;7.25;;;15.50;99.90;;;;;;5041781;28;20057;-96
2021/06/30 09:00:50;;;;;;;15.07;8.38;;;15.50;99.90;;;;;;5040245;28;20252;-95
2021/06/30 09:03:19;;;;;;;11.50;6.93;;;15.50;99.90;;;;;;5039450;28;20062;-96
2021/06/30 09:08:50;;;;;;;14.68;8.20;;;15.60;99.90;;;;;;5064801;28;20075;-95
2021/06/30 09:11:20;;;;;;;14.90;8.35;;;15.60;99.90;;;;;;5023486;28;20103;-94
2021/06/30 09:14:36;;;;;;;13.52;7.72;;;15.70;99.90;;;;;;5020925;28;20068;-96
2021/06/30 09:17:18;;;;;;;15.90;8.00;;;15.70;99.90;;;;;;5038451;28;20039;-95
2021/06/30 09:19:52;;;;;;;42.63;9.98;;;15.60;99.90;;;;;;5038063;28;20042;-95
2021/06/30 09:22:28;;;;;;;20.02;8.93;;;15.90;99.90;;;;;;5039118;28;20490;-94
2021/06/30 09:24:56;;;;;;;11.88;7.63;;;15.70;99.90;;;;;;5037332;28;20071;-90
2021/06/30 09:27:44;;;;;;;13.35;7.88;;;15.80;99.90;;;;;;5037964;28;20046;-94
2021/06/30 09:30:13;;;;;;;18.92;8.60;;;15.70;99.90;;;;;;5039726;28;20046;-93
2021/06/30 09:33:00;;;;;;;14.40;8.40;;;15.70;99.90;;;;;;5037677;28;20479;-93
2021/06/30 09:35:34;;;;;;;17.27;10.45;;;15.70;99.90;;;;;;5032757;28;20053;-93
2021/06/30 09:38:26;;;;;;;19.77;9.32;;;15.60;99.90;;;;;;5026453;28;20042;-89
2021/06/30 09:40:53;;;;;;;14.05;7.97;;;15.60;99.90;;;;;;5040452;28;20049;-91
2021/06/30 09:43:28;;;;;;;18.02;8.60;;;15.50;99.90;;;;;;5038309;28;20053;-88
2021/06/30 09:45:58;;;;;;;;;;;15.50;99.90;;;;;;5036187;28;20025;-89
2021/06/30 09:48:31;;;;;;;13.02;7.60;;;15.50;99.90;;;;;;5035118;28;19921;-88
2021/06/30 09:51:00;;;;;;;15.00;7.30;;;15.50;99.90;;;;;;5019958;28;20045;-92
2021/06/30 09:53:39;;;;;;;15.23;7.07;;;15.40;99.90;;;;;;5038728;28;20037;-94
2021/06/30 09:56:33;;;;;;;14.57;7.85;;;15.50;99.90;;;;;;5028770;28;20048;-96
2021/06/30 09:59:01;;;;;;;17.55;8.38;;;15.50;99.90;;;;;;5050169;28;20042;-95
2021/06/30 10:01:28;;;;;;;15.02;8.57;;;15.50;99.90;;;;;;5035582;28;20069;-92
2021/06/30 10:03:55;;;;;;;15.52;8.00;;;15.60;99.90;;;;;;5048797;28;20061;-87
2021/06/30 10:06:23;;;;;;;16.40;8.13;;;15.60;99.90;;;;;;5031879;28;20046;-93
2021/06/30 10:08:50;;;;;;;13.32;8.18;;;15.50;99.90;;;;;;5032112;28;20052;-92
2021/06/30 10:11:17;;;;;;;15.23;8.10;;;15.50;99.90;;;;;;5000168;28;20478;-91
2021/06/30 10:13:43;;;;;;;14.63;8.00;;;15.50;99.90;;;;;;4999460;28;20057;-90
2021/06/30 10:16:12;;;;;;;20.27;8.80;;;15.50;99.90;;;;;;5000004;28;20490;-93
2021/06/30 10:18:39;;;;;;;17.33;9.05;;;15.50;99.90;;;;;;5031909;28;20057;-89
2021/06/30 10:21:07;;;;;;;17.85;9.00;;;15.50;99.90;;;;;;5032475;28;20101;-94
2021/06/30 10:23:34;;;;;;;19.10;8.65;;;15.60;99.90;;;;;;5016278;28;20046;-94
2021/06/30 10:26:01;;;;;;;13.82;7.40;;;15.60;99.90;;;;;;5033053;28;20044;-92
2021/06/30 10:28:30;;;;;;;15.55;7.30;;;15.70;99.90;;;;;;5016883;28;20109;-94
2021/06/30 10:30:57;;;;;;;16.80;7.55;;;15.70;99.90;;;;;;5018050;28;20048;-95
2021/06/30 10:33:34;;;;;;;18.08;8.02;;;15.80;99.90;;;;;;5020773;28;20128;-94
2021/06/30 10:36:10;;;;;;;15.68;8.85;;;15.80;99.90;;;;;;5019178;28;20084;-96
2021/06/30 10:38:55;;;;;;;14.68;8.40;;;15.80;99.90;;;;;;5018009;28;20050;-90
2021/06/30 10:41:51;;;;;;;15.00;9.07;;;15.90;99.90;;;;;;5034739;28;20037;-94
2021/06/30 10:44:44;;;;;;;;;;;15.90;99.90;;;;;;5041843;28;20465;-96
2021/06/30 10:47:29;;;;;;;12.65;6.93;;;15.70;99.90;;;;;;5018913;28;19921;-89
2021/06/30 11:05:31;;;;;;;14.85;7.78;;;15.70;99.90;;;;;;4894319;29;20068;-96
2021/06/30 11:12:50;;;;;;;11.20;6.55;;;15.60;99.90;;;;;;4906700;29;20040;-95
2021/06/30 11:15:38;;;;;;;14.52;7.93;;;15.70;99.90;;;;;;4938521;29;20111;-94
2021/06/30 11:18:11;;;;;;;11.02;6.32;;;15.70;99.90;;;;;;4978347;28;20406;-93
2021/06/30 11:20:49;;;;;;;11.85;5.82;;;15.80;99.90;;;;;;5012011;28;20078;-93
2021/06/30 11:23:27;;;;;;;10.43;5.95;;;15.70;99.90;;;;;;5015820;28;20065;-93
2021/06/30 11:25:56;;;;;;;10.32;6.07;;;15.70;99.90;;;;;;5015372;28;20046;-96
2021/06/30 11:28:31;;;;;;;9.05;5.60;;;15.70;99.90;;;;;;5030659;28;20049;-94
2021/06/30 11:31:19;;;;;;;11.85;6.00;;;15.70;99.90;;;;;;5027528;28;20107;-93
2021/06/30 11:34:11;;;;;;;8.73;5.65;;;15.60;99.90;;;;;;4999777;28;20064;-95
2021/06/30 11:36:41;;;;;;;10.55;5.90;;;15.60;99.90;;;;;;5017530;28;20050;-93
2021/06/30 11:39:14;;;;;;;11.20;6.32;;;15.60;99.90;;;;;;5029169;28;20042;-95
2021/06/30 11:41:52;;;;;;;9.63;6.65;;;15.60;99.90;;;;;;5019530;28;20083;-93
2021/06/30 11:47:40;;;;;;;8.68;5.20;;;15.60;99.90;;;;;;5038583;28;20073;-94
2021/06/30 11:50:19;;;;;;;8.98;4.97;;;15.50;99.90;;;;;;5009993;28;20127;-95
2021/06/30 11:53:02;;;;;;;7.55;4.10;;;15.70;99.90;;;;;;5025194;28;20056;-94
2021/06/30 11:55:53;;;;;;;7.05;4.07;;;15.60;99.90;;;;;;5018062;28;20085;-96
2021/06/30 11:58:47;;;;;;;8.77;4.18;;;15.50;99.90;;;;;;5022025;28;20042;-94
2021/06/30 12:01:27;;;;;;;7.95;4.38;;;15.60;99.90;;;;;;5035550;28;20816;-96
2021/06/30 12:04:20;;;;;;;9.50;5.00;;;15.60;99.90;;;;;;5031040;28;20034;-91
2021/06/30 12:07:13;;;;;;;8.40;4.15;;;15.60;99.90;;;;;;5032161;28;20121;-92
2021/06/30 12:09:41;;;;;;;8.63;5.00;;;15.60;99.90;;;;;;5030232;28;20129;-93
2021/06/30 12:12:12;;;;;;;9.60;6.05;;;15.60;99.90;;;;;;5043657;28;20120;-96
2021/06/30 12:14:47;;;;;;;10.82;5.15;;;15.60;99.90;;;;;;5054032;28;20038;-93
2021/06/30 12:17:16;;;;;;;8.00;5.07;;;15.70;99.90;;;;;;5036105;28;20057;-91
2021/06/30 12:19:46;;;;;;;8.52;5.03;;;15.70;99.90;;;;;;5013344;28;20029;-96
2021/06/30 12:22:31;;;;;;;8.57;4.72;;;15.60;99.90;;;;;;5036450;28;20054;-96
2021/06/30 12:25:05;;;;;;;9.70;5.18;;;15.70;99.90;;;;;;5034446;28;20046;-92
2021/06/30 12:27:35;;;;;;;10.25;5.57;;;15.60;99.90;;;;;;5035118;28;20086;-93
2021/06/30 12:30:06;;;;;;;8.00;5.10;;;15.60;99.90;;;;;;5030767;28;20049;-92
2021/06/30 12:32:44;;;;;;;10.32;5.45;;;15.50;99.90;;;;;;5050194;28;20042;-93
2021/06/30 12:35:13;;;;;;;7.10;5.20;;;15.50;99.90;;;;;;5045122;28;20550;-92
2021/06/30 12:37:43;;;;;;;8.98;5.47;;;15.40;99.90;;;;;;5033758;28;20100;-93
2021/06/30 12:40:18;;;;;;;9.48;4.88;;;15.40;99.90;;;;;;5030446;28;20054;-94
2021/06/30 12:42:57;;;;;;;8.32;4.82;;;15.30;99.90;;;;;;5015386;28;20105;-94
2021/06/30 12:45:45;;;;;;;11.98;5.65;;;15.30;99.90;;;;;;5040550;28;20108;-94
2021/06/30 12:48:19;;;;;;;8.43;5.20;;;15.30;99.90;;;;;;5052706;28;20034;-95
2021/06/30 12:50:51;;;;;;;10.13;4.85;;;15.30;99.90;;;;;;5036538;28;20065;-93
2021/06/30 12:53:28;;;;;;;8.60;4.65;;;15.20;99.90;;;;;;5037344;28;20050;-92
2021/06/30 12:56:01;;;;;;;12.05;5.13;;;15.10;99.90;;;;;;5015403;28;20048;-93
2021/06/30 12:58:48;;;;;;;7.53;4.88;;;15.10;99.90;;;;;;5034345;28;20132;-96
2021/06/30 13:01:38;;;;;;;9.20;5.03;;;15.00;99.90;;;;;;5041337;28;20061;-96
2021/06/30 13:04:13;;;;;;;7.43;4.90;;;15.00;99.90;;;;;;5034436;28;20049;-96
2021/06/30 14:06:45;;;;;;;9.57;5.20;;;14.90;99.90;;;;;;4996971;28;20047;-94
2021/06/30 14:09:13;;;;;;;7.75;5.07;;;14.70;99.90;;;;;;4984792;28;20133;-92
2021/06/30 14:11:40;;;;;;;9.77;5.43;;;14.80;99.90;;;;;;4981291;28;20097;-92
2021/06/30 14:14:07;;;;;;;8.80;5.80;;;14.80;99.90;;;;;;4981107;28;20038;-94